createdAt,value
2022-08-03T00:00:28.238Z,57.60
2022-08-03T00:02:55.054Z,57.70
2022-08-03T00:05:22.115Z,57.60
2022-08-03T00:07:49.568Z,57.60
2022-08-03T00:10:17.106Z,57.60
2022-08-03T00:12:44.192Z,57.50
2022-08-03T00:15:16.686Z,57.60
2022-08-03T00:17:52.394Z,57.50
2022-08-03T00:20:21.678Z,57.50
2022-08-03T00:22:49.206Z,57.50
2022-08-03T00:25:16.207Z,57.50
2022-08-03T00:27:43.021Z,57.40
2022-08-03T00:30:10.886Z,57.40
2022-08-03T00:32:40.034Z,57.50
2022-08-03T00:35:28.031Z,57.40
2022-08-03T00:37:59.202Z,57.40
2022-08-03T00:40:26.298Z,57.30
2022-08-03T00:42:55.644Z,57.30
2022-08-03T00:45:25.008Z,57.30
2022-08-03T00:47:52.396Z,57.30
2022-08-03T00:50:20.524Z,57.30
2022-08-03T00:52:47.746Z,57.20
2022-08-03T00:55:14.879Z,57.20
2022-08-03T00:57:43.272Z,57.20
2022-08-03T01:00:12.108Z,57.30
2022-08-03T01:02:39.943Z,57.20
2022-08-03T01:05:07.631Z,57.30
2022-08-03T01:07:43.892Z,57.20
2022-08-03T01:10:18.451Z,57.20
2022-08-03T01:13:59.164Z,57.20
2022-08-03T01:16:09.126Z,57.20
2022-08-03T01:18:45.390Z,57.10
2022-08-03T01:21:24.395Z,57.10
2022-08-03T01:24:04.802Z,57.10
2022-08-03T01:26:50.389Z,57.10
2022-08-03T01:29:36.099Z,57.10
2022-08-03T01:32:53.579Z,57.10
2022-08-03T01:35:05.373Z,57.00
2022-08-03T01:37:38.668Z,57.00
2022-08-03T01:40:06.652Z,57.00
2022-08-03T01:42:34.215Z,57.00
2022-08-03T01:45:02.208Z,57.00
2022-08-03T01:47:29.763Z,57.00
2022-08-03T01:49:57.880Z,57.00
2022-08-03T01:52:25.197Z,56.90
2022-08-03T01:54:53.567Z,57.00
2022-08-03T01:57:21.416Z,56.90
2022-08-03T01:59:49.834Z,56.90
2022-08-03T02:02:33.062Z,56.90
2022-08-03T02:05:01.902Z,56.90
2022-08-03T02:07:29.721Z,56.80
2022-08-03T02:09:57.266Z,56.90
2022-08-03T02:15:20.748Z,56.80
2022-08-03T02:17:48.019Z,56.80
2022-08-03T02:20:15.596Z,56.80
2022-08-03T02:22:43.563Z,56.60
2022-08-03T02:25:11.845Z,56.70
2022-08-03T02:27:44.208Z,56.70
2022-08-03T02:30:12.175Z,56.80
2022-08-03T02:32:41.547Z,56.80
2022-08-03T02:35:13.023Z,56.70
2022-08-03T02:37:49.867Z,56.70
2022-08-03T02:40:19.054Z,56.60
2022-08-03T02:42:47.413Z,56.70
2022-08-03T02:45:16.438Z,56.70
2022-08-03T02:47:53.190Z,56.70
2022-08-03T02:50:22.961Z,57.30
2022-08-03T02:52:50.298Z,56.70
2022-08-03T02:55:18.176Z,56.60
2022-08-03T02:57:45.548Z,56.50
2022-08-03T03:00:13.324Z,57.30
2022-08-03T03:02:56.715Z,56.50
2022-08-03T03:05:52.269Z,56.50
2022-08-03T03:08:17.948Z,56.50
2022-08-03T03:10:46.167Z,56.50
2022-08-03T03:13:14.680Z,56.40
2022-08-03T03:15:42.285Z,56.40
2022-08-03T03:18:10.104Z,56.40
2022-08-03T03:20:37.670Z,56.30
2022-08-03T03:23:05.430Z,56.40
2022-08-03T03:25:32.927Z,56.40
2022-08-03T03:28:01.024Z,56.30
2022-08-03T03:30:28.415Z,56.30
2022-08-03T03:32:55.608Z,56.30
2022-08-03T03:35:22.539Z,56.10
2022-08-03T03:37:49.499Z,56.30
2022-08-03T03:40:16.444Z,56.20
2022-08-03T03:42:43.398Z,56.30
2022-08-03T03:45:10.882Z,56.30
2022-08-03T03:47:38.214Z,56.30
2022-08-03T03:50:05.973Z,56.20
2022-08-03T03:52:33.707Z,56.20
2022-08-03T03:55:01.527Z,56.20
2022-08-03T03:57:29.391Z,56.10
2022-08-03T03:59:56.422Z,56.00
2022-08-03T04:02:23.425Z,56.10
2022-08-03T04:05:08.743Z,56.00
2022-08-03T04:08:10.369Z,56.00
2022-08-03T04:10:58.764Z,55.90
2022-08-03T04:13:30.906Z,55.90
2022-08-03T04:15:58.212Z,56.00
2022-08-03T04:18:27.201Z,55.90
2022-08-03T04:20:57.392Z,56.00
2022-08-03T04:23:25.871Z,56.10
2022-08-03T04:25:53.335Z,56.00
2022-08-03T04:28:29.544Z,56.10
2022-08-03T04:31:02.696Z,56.30
2022-08-03T04:33:31.453Z,56.20
2022-08-03T04:36:03.372Z,56.20
2022-08-03T04:38:35.779Z,56.10
2022-08-03T04:41:03.369Z,56.10
2022-08-03T04:43:33.333Z,56.10
2022-08-03T04:46:01.422Z,56.10
2022-08-03T04:48:28.833Z,56.00
2022-08-03T04:50:55.666Z,56.00
2022-08-03T04:53:22.641Z,56.00
2022-08-03T04:55:50.112Z,56.00
2022-08-03T04:58:17.126Z,56.70
2022-08-03T05:00:45.583Z,56.10
2022-08-03T05:03:20.286Z,56.10
2022-08-03T05:06:01.723Z,56.10
2022-08-03T05:08:46.377Z,56.10
2022-08-03T05:11:15.929Z,56.10
2022-08-03T05:13:43.919Z,56.10
2022-08-03T05:16:11.943Z,56.10
2022-08-03T05:18:38.770Z,56.10
2022-08-03T05:21:05.605Z,56.10
2022-08-03T05:23:32.647Z,56.10
2022-08-03T05:25:59.526Z,56.10
2022-08-03T05:28:26.470Z,56.10
2022-08-03T05:30:53.726Z,56.10
2022-08-03T05:33:20.764Z,56.20
2022-08-03T05:36:02.518Z,56.20
2022-08-03T05:38:34.778Z,56.30
2022-08-03T05:41:20.257Z,56.20
2022-08-03T05:43:50.500Z,56.20
2022-08-03T05:46:17.418Z,56.30
2022-08-03T05:48:44.305Z,56.30
2022-08-03T05:51:12.040Z,56.30
2022-08-03T05:53:40.395Z,56.30
2022-08-03T05:56:14.577Z,56.30
2022-08-03T05:58:44.408Z,56.30
2022-08-03T06:01:11.364Z,56.30
2022-08-03T06:03:38.275Z,56.40
2022-08-03T06:06:05.265Z,56.50
2022-08-03T06:08:32.197Z,56.40
2022-08-03T06:10:59.044Z,56.40
2022-08-03T06:13:25.966Z,56.40
2022-08-03T06:15:52.819Z,56.50
2022-08-03T06:18:20.036Z,56.50
2022-08-03T06:20:49.353Z,56.50
2022-08-03T06:23:17.969Z,56.40
2022-08-03T06:25:45.942Z,56.40
2022-08-03T06:28:42.546Z,56.40
2022-08-03T06:31:01.637Z,56.40
2022-08-03T06:34:30.851Z,56.40
2022-08-03T06:36:15.866Z,57.10
2022-08-03T06:38:42.763Z,56.40
2022-08-03T06:41:09.672Z,56.40
2022-08-03T06:43:37.938Z,56.40
2022-08-03T06:46:05.708Z,56.40
2022-08-03T06:48:32.697Z,56.40
2022-08-03T06:50:59.707Z,56.40
2022-08-03T06:53:26.536Z,56.40
2022-08-03T06:55:54.821Z,56.40
2022-08-03T06:58:22.668Z,56.30
2022-08-03T07:00:49.773Z,56.30
2022-08-03T07:03:17.117Z,56.40
2022-08-03T07:05:46.708Z,56.40
2022-08-03T07:08:14.556Z,56.40
2022-08-03T07:10:41.548Z,56.50
2022-08-03T07:13:08.849Z,56.50
2022-08-03T07:15:53.864Z,56.50
2022-08-03T07:18:29.081Z,56.40
2022-08-03T07:21:00.009Z,56.40
2022-08-03T07:23:27.096Z,56.40
2022-08-03T07:25:53.989Z,56.40
2022-08-03T07:28:21.382Z,56.40
2022-08-03T07:30:48.503Z,56.40
2022-08-03T07:33:15.416Z,56.40
2022-08-03T07:35:42.363Z,56.40
2022-08-03T07:38:09.221Z,56.40
2022-08-03T07:40:36.136Z,56.40
2022-08-03T07:43:03.746Z,56.40
2022-08-03T07:45:34.078Z,56.40
2022-08-03T07:48:01.184Z,56.40
2022-08-03T07:50:28.077Z,56.40
2022-08-03T07:52:56.113Z,56.30
2022-08-03T07:55:25.251Z,56.40
2022-08-03T07:58:06.334Z,56.40
2022-08-03T08:00:33.963Z,56.40
2022-08-03T08:03:00.971Z,56.40
2022-08-03T08:05:28.190Z,56.40
2022-08-03T08:07:55.451Z,56.40
2022-08-03T08:10:22.905Z,56.30
2022-08-03T08:12:49.731Z,56.30
2022-08-03T08:15:16.667Z,56.30
2022-08-03T08:17:50.195Z,56.30
2022-08-03T08:20:27.759Z,56.20
2022-08-03T08:22:58.152Z,56.30
2022-08-03T08:25:26.035Z,56.20
2022-08-03T08:28:29.132Z,56.20
2022-08-03T08:30:40.659Z,56.10
2022-08-03T08:33:08.733Z,56.20
2022-08-03T08:35:49.798Z,56.10
2022-08-03T08:38:16.608Z,56.10
2022-08-03T08:40:43.488Z,56.10
2022-08-03T08:43:10.531Z,56.10
2022-08-03T08:45:37.995Z,56.10
2022-08-03T08:48:08.320Z,56.10
2022-08-03T08:50:37.846Z,56.10
2022-08-03T08:53:09.907Z,56.10
2022-08-03T08:55:58.840Z,56.10
2022-08-03T08:58:30.342Z,56.10
2022-08-03T09:00:57.317Z,56.20
2022-08-03T09:03:30.211Z,56.20
2022-08-03T09:06:00.612Z,56.20
2022-08-03T09:08:28.455Z,56.30
2022-08-03T09:10:55.313Z,56.30
2022-08-03T09:13:22.262Z,56.30
2022-08-03T09:16:00.582Z,56.20
2022-08-03T09:18:33.047Z,56.20
2022-08-03T09:21:34.405Z,56.20
2022-08-03T09:24:05.286Z,56.30
2022-08-03T09:26:38.052Z,56.30
2022-08-03T09:29:13.249Z,56.30
2022-08-03T09:31:45.913Z,56.30
2022-08-03T09:34:15.274Z,56.20
2022-08-03T09:36:48.985Z,56.20
2022-08-03T09:39:41.391Z,56.30
2022-08-03T09:42:10.642Z,56.20
2022-08-03T09:44:42.308Z,56.30
2022-08-03T09:47:14.589Z,56.30
2022-08-03T09:49:42.738Z,56.20
2022-08-03T09:52:37.625Z,56.20
2022-08-03T09:56:33.651Z,56.30
2022-08-03T09:58:07.051Z,56.30
2022-08-03T10:00:59.558Z,56.30
2022-08-03T10:03:28.970Z,56.40
2022-08-03T10:05:59.817Z,56.30
2022-08-03T10:08:27.214Z,56.30
2022-08-03T10:10:54.646Z,56.30
2022-08-03T10:13:22.424Z,56.30
2022-08-03T10:16:21.866Z,56.40
2022-08-03T10:18:36.550Z,56.40
2022-08-03T10:21:05.011Z,56.40
2022-08-03T10:23:35.785Z,56.40
2022-08-03T10:26:04.198Z,56.40
2022-08-03T10:28:38.411Z,56.40
2022-08-03T10:31:08.544Z,56.40
2022-08-03T10:33:49.582Z,56.40
2022-08-03T10:36:20.687Z,56.50
2022-08-03T10:38:57.844Z,56.50
2022-08-03T10:41:33.224Z,56.50
2022-08-03T10:44:10.432Z,56.40
2022-08-03T10:46:44.521Z,56.40
2022-08-03T10:49:16.667Z,56.50
2022-08-03T10:51:54.531Z,56.40
2022-08-03T10:55:10.871Z,56.40
2022-08-03T10:57:58.877Z,56.50
2022-08-03T11:00:28.261Z,56.40
2022-08-03T11:03:04.281Z,56.30
2022-08-03T11:05:33.108Z,56.40
2022-08-03T11:08:22.525Z,56.30
2022-08-03T11:10:51.370Z,56.30
2022-08-03T11:13:20.762Z,56.20
2022-08-03T11:15:50.357Z,56.20
2022-08-03T11:18:17.400Z,56.30
2022-08-03T11:20:58.838Z,56.20
2022-08-03T11:24:04.387Z,56.20
2022-08-03T11:26:34.048Z,56.10
2022-08-03T11:29:37.890Z,56.10
2022-08-03T11:32:05.010Z,56.00
2022-08-03T11:34:31.837Z,56.00
2022-08-03T11:37:22.462Z,56.00
2022-08-03T11:39:51.811Z,55.90
2022-08-03T11:42:25.468Z,56.00
2022-08-03T11:44:57.111Z,55.90
2022-08-03T11:47:27.054Z,55.90
2022-08-03T11:50:00.125Z,55.90
2022-08-03T11:52:28.725Z,55.80
2022-08-03T11:54:56.712Z,55.80
2022-08-03T11:59:10.947Z,55.70
2022-08-03T12:00:30.350Z,55.80
2022-08-03T12:02:59.125Z,55.70
2022-08-03T12:05:51.175Z,55.60
2022-08-03T12:08:33.451Z,55.60
2022-08-03T12:11:06.652Z,55.60
2022-08-03T12:14:44.211Z,55.60
2022-08-03T12:16:30.775Z,55.50
2022-08-03T12:18:57.682Z,55.50
2022-08-03T12:21:24.969Z,55.60
2022-08-03T12:24:00.398Z,55.60
2022-08-03T12:26:29.120Z,55.60
2022-08-03T12:28:56.446Z,55.70
2022-08-03T12:31:23.254Z,55.70
2022-08-03T12:33:59.505Z,55.80
2022-08-03T12:36:27.955Z,55.80
2022-08-03T12:39:06.351Z,55.80
2022-08-03T12:41:38.268Z,55.70
2022-08-03T12:44:06.820Z,55.70
2022-08-03T12:46:34.637Z,55.60
2022-08-03T12:49:11.690Z,55.60
2022-08-03T12:51:58.217Z,55.50
2022-08-03T12:54:28.079Z,55.30
2022-08-03T12:57:02.420Z,55.40
2022-08-03T12:59:34.741Z,55.50
2022-08-03T13:02:04.381Z,55.40
2022-08-03T13:04:33.794Z,55.40
2022-08-03T13:07:12.880Z,55.50
2022-08-03T13:09:54.934Z,55.30
2022-08-03T13:12:23.443Z,55.00
2022-08-03T13:15:00.666Z,55.40
2022-08-03T13:17:28.404Z,55.00
2022-08-03T13:19:55.840Z,55.20
2022-08-03T13:22:24.746Z,55.90
2022-08-03T13:24:53.556Z,54.90
2022-08-03T13:28:01.493Z,54.90
2022-08-03T13:30:08.853Z,55.10
2022-08-03T13:32:35.872Z,54.90
2022-08-03T13:35:04.051Z,54.70
2022-08-03T13:37:32.362Z,54.60
2022-08-03T13:40:02.414Z,54.60
2022-08-03T13:42:31.346Z,54.70
2022-08-03T13:44:58.880Z,54.80
2022-08-03T13:47:26.591Z,54.70
2022-08-03T13:50:00.189Z,54.60
2022-08-03T13:52:33.239Z,54.60
2022-08-03T13:55:01.186Z,54.60
2022-08-03T13:58:03.456Z,54.60
2022-08-03T14:00:27.280Z,54.60
2022-08-03T14:03:10.813Z,54.50
2022-08-03T14:05:41.184Z,54.20
2022-08-03T14:08:08.515Z,54.10
2022-08-03T14:10:40.483Z,54.30
2022-08-03T14:13:07.435Z,54.30
2022-08-03T14:15:37.790Z,53.90
2022-08-03T14:18:06.436Z,53.80
2022-08-03T14:20:36.882Z,54.00
2022-08-03T14:23:07.116Z,53.80
2022-08-03T14:25:43.180Z,53.60
2022-08-03T14:28:16.852Z,53.70
2022-08-03T14:30:46.776Z,53.60
2022-08-03T14:33:13.583Z,53.90
2022-08-03T14:35:40.635Z,53.40
2022-08-03T14:38:07.593Z,53.20
2022-08-03T14:40:34.487Z,53.40
2022-08-03T14:43:02.393Z,53.50
2022-08-03T14:45:29.323Z,53.50
2022-08-03T14:50:32.447Z,53.50
2022-08-03T14:50:48.316Z,53.40
2022-08-03T14:53:20.568Z,53.40
2022-08-03T14:55:49.814Z,53.20
2022-08-03T14:58:28.044Z,53.30
2022-08-03T15:00:55.709Z,53.20
2022-08-03T15:03:24.776Z,53.20
2022-08-03T15:05:56.658Z,53.00
2022-08-03T15:08:24.772Z,52.90
2022-08-03T15:10:51.959Z,52.80
2022-08-03T15:13:19.717Z,52.90
2022-08-03T15:15:46.781Z,52.80
2022-08-03T15:18:13.727Z,52.60
2022-08-03T15:20:45.482Z,52.20
2022-08-03T15:23:14.697Z,52.50
2022-08-03T15:26:28.329Z,52.50
2022-08-03T15:28:29.773Z,52.30
2022-08-03T15:30:57.136Z,52.10
2022-08-03T15:33:25.081Z,52.40
2022-08-03T15:35:52.981Z,51.80
2022-08-03T15:38:20.379Z,51.90
2022-08-03T15:40:47.237Z,51.50
2022-08-03T15:43:14.175Z,52.10
2022-08-03T15:45:42.865Z,52.50
2022-08-03T15:48:09.685Z,52.40
2022-08-03T15:50:36.727Z,52.40
2022-08-03T15:53:04.186Z,52.40
2022-08-03T15:55:31.594Z,52.20
2022-08-03T15:59:04.394Z,52.30
2022-08-03T16:00:45.594Z,52.50
2022-08-03T16:03:12.554Z,52.40
2022-08-03T16:05:39.889Z,52.10
2022-08-03T16:08:10.409Z,52.10
2022-08-03T16:10:41.135Z,52.00
2022-08-03T16:13:08.183Z,52.20
2022-08-03T16:15:38.407Z,52.20
2022-08-03T16:18:09.258Z,51.90
2022-08-03T16:20:36.204Z,51.90
2022-08-03T16:23:11.455Z,52.10
2022-08-03T16:25:39.968Z,51.90
2022-08-03T16:28:12.780Z,52.00
2022-08-03T16:30:42.120Z,51.20
2022-08-03T16:33:09.078Z,51.80
2022-08-03T16:35:36.140Z,52.10
2022-08-03T16:38:09.243Z,51.90
2022-08-03T16:40:40.264Z,51.90
2022-08-03T16:43:18.760Z,51.70
2022-08-03T16:45:49.241Z,51.50
2022-08-03T16:48:17.144Z,52.10
2022-08-03T16:50:44.472Z,51.90
2022-08-03T16:53:16.499Z,51.50
2022-08-03T16:55:52.408Z,51.60
2022-08-03T16:58:34.288Z,51.80
2022-08-03T17:01:20.863Z,52.10
2022-08-03T17:04:03.162Z,51.90
2022-08-03T17:06:36.936Z,51.90
2022-08-03T17:09:08.648Z,52.20
2022-08-03T17:11:46.571Z,52.20
2022-08-03T17:14:16.126Z,51.90
2022-08-03T17:16:52.888Z,51.80
2022-08-03T17:19:24.918Z,52.30
2022-08-03T17:22:00.510Z,52.20
2022-08-03T17:24:40.799Z,52.20
2022-08-03T17:28:42.079Z,52.30
2022-08-03T17:30:08.116Z,52.40
2022-08-03T17:32:42.344Z,52.60
2022-08-03T17:35:10.466Z,52.00
2022-08-03T17:37:58.474Z,52.00
2022-08-03T17:40:24.680Z,52.60
2022-08-03T17:42:52.795Z,52.40
2022-08-03T17:45:20.775Z,52.00
2022-08-03T17:47:57.384Z,52.70
2022-08-03T17:50:32.912Z,52.60
2022-08-03T17:53:15.179Z,52.60
2022-08-03T17:56:07.713Z,52.40
2022-08-03T17:59:08.455Z,52.20
2022-08-03T18:02:05.584Z,52.40
2022-08-03T18:04:43.252Z,52.60
2022-08-03T18:07:23.275Z,52.50
2022-08-03T18:13:02.028Z,52.50
2022-08-03T18:15:43.480Z,52.50
2022-08-03T18:18:11.588Z,52.70
2022-08-03T18:20:42.008Z,52.50
2022-08-03T18:23:25.168Z,52.70
2022-08-03T18:25:59.494Z,52.80
2022-08-03T18:28:27.557Z,52.80
2022-08-03T18:30:55.955Z,52.90
2022-08-03T18:34:18.111Z,52.90
2022-08-03T18:36:21.690Z,53.00
2022-08-03T18:38:56.552Z,52.90
2022-08-03T18:41:32.364Z,52.90
2022-08-03T18:44:08.146Z,52.90
2022-08-03T18:47:06.835Z,52.90
2022-08-03T18:49:53.915Z,53.00
2022-08-03T18:52:21.033Z,53.00
2022-08-03T18:55:02.335Z,53.10
2022-08-03T18:57:54.669Z,53.10
2022-08-03T19:00:24.342Z,53.10
2022-08-03T19:03:10.106Z,53.20
2022-08-03T19:06:02.616Z,53.20
2022-08-03T19:08:50.680Z,53.20
2022-08-03T19:11:29.104Z,53.30
2022-08-03T19:14:18.284Z,53.40
2022-08-03T19:16:48.113Z,53.40
2022-08-03T19:19:17.720Z,53.50
2022-08-03T19:21:46.018Z,53.50
2022-08-03T19:24:17.359Z,53.50
2022-08-03T19:26:48.650Z,53.60
2022-08-03T19:29:22.745Z,53.60
2022-08-03T19:31:59.224Z,53.60
2022-08-03T19:34:32.691Z,53.70
2022-08-03T19:36:59.935Z,53.80
2022-08-03T19:39:27.132Z,53.70
2022-08-03T19:41:58.362Z,53.80
2022-08-03T19:44:38.209Z,53.70
2022-08-03T19:47:11.716Z,53.70
2022-08-03T19:50:00.024Z,53.80
2022-08-03T19:52:39.541Z,53.80
2022-08-03T19:55:12.477Z,53.80
2022-08-03T19:57:42.968Z,53.80
2022-08-03T20:00:12.561Z,53.90
2022-08-03T20:02:41.532Z,53.90
2022-08-03T20:05:14.732Z,53.90
2022-08-03T20:07:47.932Z,54.00
2022-08-03T20:10:18.868Z,54.00
2022-08-03T20:12:47.059Z,54.00
2022-08-03T20:15:13.973Z,54.00
2022-08-03T20:17:56.546Z,54.00
2022-08-03T20:20:31.652Z,54.40
2022-08-03T20:23:00.503Z,54.10
2022-08-03T20:25:37.959Z,54.00
2022-08-03T20:28:15.204Z,54.10
2022-08-03T20:30:47.441Z,54.10
2022-08-03T20:33:19.055Z,54.20
2022-08-03T20:35:49.175Z,54.30
2022-08-03T20:38:17.808Z,54.20
2022-08-03T20:40:46.087Z,54.30
2022-08-03T20:43:12.953Z,54.40
2022-08-03T20:46:00.232Z,54.30
2022-08-03T20:48:28.426Z,54.30
2022-08-03T20:50:56.540Z,54.40
2022-08-03T20:53:57.337Z,54.30
2022-08-03T20:56:10.544Z,54.30
2022-08-03T20:58:37.438Z,54.40
2022-08-03T21:01:08.558Z,54.40
2022-08-03T21:03:40.988Z,54.40
2022-08-03T21:06:27.515Z,54.50
2022-08-03T21:09:03.901Z,54.50
2022-08-03T21:11:41.797Z,54.50
2022-08-03T21:13:04.040Z,52.50
2022-08-03T21:14:38.800Z,54.50
2022-08-03T21:17:14.256Z,54.50
2022-08-03T21:19:53.402Z,54.50
2022-08-03T21:22:26.496Z,54.60
2022-08-03T21:24:55.889Z,54.60
2022-08-03T21:27:24.158Z,54.50
2022-08-03T21:29:53.353Z,54.60
2022-08-03T21:32:32.793Z,54.70
2022-08-03T21:35:01.239Z,54.70
2022-08-03T21:37:28.852Z,54.70
2022-08-03T21:39:56.856Z,54.70
2022-08-03T21:42:23.934Z,54.70
2022-08-03T21:44:54.151Z,54.80
2022-08-03T21:47:22.687Z,54.80
2022-08-03T21:50:07.444Z,54.80
2022-08-03T21:52:48.131Z,54.90
2022-08-03T21:55:20.398Z,54.90
2022-08-03T21:57:53.147Z,54.90
2022-08-03T22:00:23.036Z,55.00
2022-08-03T22:02:56.039Z,55.00
2022-08-03T22:05:42.713Z,55.00
2022-08-03T22:08:13.276Z,55.10
2022-08-03T22:10:40.711Z,55.00
2022-08-03T22:13:07.672Z,54.90
2022-08-03T22:15:34.572Z,54.90
2022-08-03T22:18:04.559Z,54.90
2022-08-03T22:20:31.731Z,54.90
2022-08-03T22:23:02.497Z,55.00
2022-08-03T22:25:32.249Z,55.00
2022-08-03T22:28:10.235Z,55.10
2022-08-03T22:30:38.225Z,55.20
2022-08-03T22:33:11.436Z,55.20
2022-08-03T22:35:50.700Z,55.20
2022-08-03T22:38:18.622Z,55.30
2022-08-03T22:40:48.173Z,55.30
2022-08-03T22:43:15.102Z,55.30
2022-08-03T22:46:06.404Z,55.40
2022-08-03T22:48:41.240Z,55.40
2022-08-03T22:51:09.277Z,55.30
2022-08-03T22:53:36.491Z,55.30
2022-08-03T22:56:03.933Z,55.40
2022-08-03T22:58:30.839Z,55.40
2022-08-03T23:01:09.590Z,55.40
2022-08-03T23:04:00.616Z,55.40
2022-08-03T23:06:26.982Z,55.40
2022-08-03T23:08:54.035Z,55.50
2022-08-03T23:11:23.090Z,55.50
2022-08-03T23:13:54.136Z,55.60
2022-08-03T23:16:29.071Z,55.60
2022-08-03T23:18:59.510Z,55.70
2022-08-03T23:22:00.805Z,55.60
2022-08-03T23:24:17.727Z,55.70
2022-08-03T23:26:58.192Z,55.70
2022-08-03T23:29:26.547Z,55.70
2022-08-03T23:31:54.721Z,55.80
2022-08-03T23:34:40.219Z,55.70
2022-08-03T23:37:07.200Z,55.80
2022-08-03T23:39:35.355Z,55.60
2022-08-03T23:42:02.973Z,55.60
2022-08-03T23:44:31.185Z,55.60
2022-08-03T23:46:58.098Z,55.50
2022-08-03T23:49:25.003Z,55.60
2022-08-03T23:51:54.688Z,55.50
2022-08-03T23:54:35.793Z,55.50
2022-08-03T23:57:19.996Z,55.50
2022-08-03T23:59:52.843Z,55.50
